| time (UTC) | temp C | wind direction | speed KPH | gust KPH | rain 1hr cm | rain 24hr cm | rain mn cm | humidity % | barometer mb |
| 20260508214325 | 21 | 263 | 6.4 | 14.5 | 0.00 | 0.00 | 0.03 | 16 | 1012.7 |
| 20260508213824 | 21 | 263 | 4.8 | 14.5 | 0.00 | 0.00 | 0.03 | 17 | 1012.8 |
| 20260508213324 | 22 | 246 | 3.2 | 12.9 | 0.00 | 0.00 | 0.03 | 16 | 1012.8 |
| 20260508212824 | 21 | 281 | 6.4 | 11.3 | 0.00 | 0.00 | 0.03 | 23 | 1012.8 |
| 20260508211823 | 22 | 294 | 1.6 | 6.4 | 0.00 | 0.00 | 0.03 | 20 | 1012.7 |
| 20260508211323 | 21 | 269 | 8.0 | 16.1 | 0.00 | 0.00 | 0.03 | 20 | 1012.8 |
| 20260508210823 | 21 | 269 | 4.8 | 11.3 | 0.00 | 0.00 | 0.03 | 18 | 1012.9 |
| 20260508210322 | 21 | 204 | 3.2 | 11.3 | 0.00 | 0.00 | 0.03 | 19 | 1012.8 |
| 20260508205822 | 21 | 267 | 8.0 | 16.1 | 0.00 | 0.00 | 0.03 | 20 | 1012.8 |
| 20260508204822 | 21 | 264 | 6.4 | 16.1 | 0.00 | 0.00 | 0.03 | 19 | 1013.0 |
| 20260508204320 | 21 | 267 | 8.0 | 16.1 | 0.00 | 0.00 | 0.03 | 18 | 1013.2 |
| 20260508203819 | 21 | 262 | 4.8 | 9.7 | 0.00 | 0.00 | 0.03 | 18 | 1013.2 |
| 20260508202818 | 21 | 201 | 3.2 | 9.7 | 0.00 | 0.00 | 0.03 | 18 | 1013.5 |
| 20260508202318 | 21 | 259 | 3.2 | 9.7 | 0.00 | 0.00 | 0.03 | 24 | 1013.6 |
| 20260508201817 | 20 | 210 | 3.2 | 9.7 | 0.00 | 0.00 | 0.03 | 24 | 1013.7 |
| 20260508201317 | 20 | 252 | 8.0 | 20.9 | 0.00 | 0.00 | 0.03 | 24 | 1013.8 |
| 20260508200316 | 20 | 255 | 8.0 | 14.5 | 0.00 | 0.00 | 0.03 | 24 | 1014.1 |
| 20260508195816 | 20 | 270 | 9.7 | 24.1 | 0.00 | 0.00 | 0.03 | 29 | 1014.2 |
| 20260508195316 | 20 | 277 | 9.7 | 17.7 | 0.00 | 0.00 | 0.03 | 29 | 1014.2 |
| 20260508194816 | 20 | 270 | 6.4 | 12.9 | 0.00 | 0.00 | 0.03 | 23 | 1014.4 |
| 20260508194315 | 21 | 256 | 4.8 | 12.9 | 0.00 | 0.00 | 0.03 | 23 | 1014.5 |
| 20260508193813 | 21 | 264 | 4.8 | 16.1 | 0.00 | 0.00 | 0.03 | 28 | 1014.6 |
| 20260508193313 | 20 | 281 | 6.4 | 14.5 | 0.00 | 0.00 | 0.03 | 27 | 1014.8 |
| 20260508192813 | 21 | 166 | 6.4 | 16.1 | 0.00 | 0.00 | 0.03 | 21 | 1015.0 |
| 20260508192313 | 20 | 276 | 4.8 | 14.5 | 0.00 | 0.00 | 0.03 | 27 | 1015.2 |
| 20260508191812 | 20 | 167 | 4.8 | 12.9 | 0.00 | 0.00 | 0.03 | 23 | 1015.3 |
| 20260508191312 | 20 | 255 | 6.4 | 16.1 | 0.00 | 0.00 | 0.03 | 21 | 1015.4 |
| 20260508190811 | 20 | 271 | 3.2 | 8.0 | 0.00 | 0.00 | 0.03 | 21 | 1015.3 |
| 20260508190311 | 20 | 283 | 4.8 | 17.7 | 0.00 | 0.00 | 0.03 | 26 | 1015.6 |
| 20260508185811 | 20 | 264 | 6.4 | 12.9 | 0.00 | 0.00 | 0.03 | 26 | 1015.6 |
| 20260508185311 | 19 | 266 | 6.4 | 14.5 | 0.00 | 0.00 | 0.03 | 26 | 1015.6 |
| 20260508184810 | 19 | 277 | 4.8 | 11.3 | 0.00 | 0.00 | 0.03 | 23 | 1015.7 |
| 20260508184309 | 19 | 266 | 4.8 | 12.9 | 0.00 | 0.00 | 0.03 | 23 | 1015.7 |
| 20260508183808 | 20 | 256 | 4.8 | 11.3 | 0.00 | 0.00 | 0.03 | 22 | 1015.8 |
| 20260508182808 | 18 | 259 | 8.0 | 19.3 | 0.00 | 0.00 | 0.03 | 32 | 1015.9 |
| 20260508182308 | 19 | 277 | 4.8 | 11.3 | 0.00 | 0.00 | 0.03 | 29 | 1015.9 |
| 20260508181807 | 19 | 205 | 3.2 | 11.3 | 0.00 | 0.00 | 0.03 | 29 | 1016.1 |
| 20260508181307 | 19 | 252 | 3.2 | 9.7 | 0.00 | 0.00 | 0.03 | 27 | 1016.1 |
| 20260508175306 | 20 | 141 | 3.2 | 11.3 | 0.00 | 0.00 | 0.03 | 26 | 1016.5 |
| 20260508174806 | 19 | 325 | 1.6 | 9.7 | 0.00 | 0.00 | 0.03 | 26 | 1016.6 |
| 20260508174304 | 17 | 288 | 0.0 | 8.0 | 0.00 | 0.00 | 0.03 | 26 | 1016.8 |
| 20260508173804 | 18 | 273 | 6.4 | 12.9 | 0.00 | 0.00 | 0.03 | 28 | 1016.9 |
| 20260508173304 | 18 | 271 | 1.6 | 8.0 | 0.00 | 0.00 | 0.03 | 28 | 1017.0 |
| 20260508172803 | 17 | 256 | 6.4 | 12.9 | 0.00 | 0.00 | 0.03 | 28 | 1017.1 |
| 20260508172307 | 18 | 267 | 4.8 | 11.3 | 0.00 | 0.00 | 0.03 | 28 | 1017.1 |
| 20260508171803 | 18 | 274 | 3.2 | 11.3 | 0.00 | 0.00 | 0.03 | 28 | 1017.2 |
| 20260508170802 | 17 | 256 | 4.8 | 12.9 | 0.00 | 0.00 | 0.03 | 33 | 1017.3 |
| 20260508170302 | 18 | 273 | 3.2 | 8.0 | 0.00 | 0.00 | 0.03 | 33 | 1017.4 |
| 20260508165801 | 17 | 287 | 4.8 | 11.3 | 0.00 | 0.00 | 0.03 | 35 | 1017.4 |
| 20260508163758 | 18 | 174 | 4.8 | 9.7 | 0.00 | 0.00 | 0.03 | 34 | 1018.0 |
| 20260508162757 | 17 | 214 | 4.8 | 14.5 | 0.00 | 0.00 | 0.03 | 40 | 1018.2 |
| 20260508162256 | 17 | 139 | 3.2 | 14.5 | 0.00 | 0.00 | 0.03 | 40 | 1018.2 |
| 20260508160754 | 17 | 191 | 3.2 | 9.7 | 0.00 | 0.00 | 0.03 | 32 | 1018.6 |
| 20260508153752 | 16 | 201 | 1.6 | 12.9 | 0.00 | 0.00 | 0.03 | 41 | 1018.7 |
| 20260508153251 | 16 | 190 | 1.6 | 9.7 | 0.00 | 0.00 | 0.03 | 44 | 1018.8 |
| 20260508152751 | 16 | 149 | 6.4 | 14.5 | 0.00 | 0.00 | 0.03 | 44 | 1018.8 |
| 20260508152251 | 16 | 224 | 3.2 | 11.3 | 0.00 | 0.00 | 0.03 | 40 | 1018.7 |
| 20260508151750 | 16 | 176 | 3.2 | 12.9 | 0.00 | 0.00 | 0.03 | 40 | 1018.8 |
| 20260508151250 | 16 | 135 | 6.4 | 14.5 | 0.00 | 0.00 | 0.03 | 46 | 1018.9 |
| 20260508150750 | 16 | 179 | 4.8 | 11.3 | 0.00 | 0.00 | 0.03 | 43 | 1018.8 |
| 20260508150249 | 15 | 143 | 4.8 | 12.9 | 0.00 | 0.00 | 0.03 | 39 | 1018.9 |
| 20260508145749 | 15 | 198 | 4.8 | 12.9 | 0.00 | 0.00 | 0.03 | 46 | 1018.9 |
| 20260508145249 | 14 | 169 | 3.2 | 11.3 | 0.00 | 0.00 | 0.03 | 45 | 1019.0 |
| 20260508144748 | 16 | 183 | 6.4 | 12.9 | 0.00 | 0.00 | 0.03 | 41 | 1019.0 |
| 20260508144248 | 14 | 191 | 3.2 | 12.9 | 0.00 | 0.00 | 0.03 | 49 | 1019.1 |
| 20260508143748 | 14 | 166 | 3.2 | 12.9 | 0.00 | 0.00 | 0.03 | 47 | 1019.0 |
| 20260508143248 | 14 | 158 | 3.2 | 9.7 | 0.00 | 0.00 | 0.03 | 53 | 1019.0 |
| 20260508142747 | 13 | 253 | 3.2 | 8.0 | 0.00 | 0.00 | 0.03 | 57 | 1019.0 |
| 20260508141747 | 13 | 195 | 3.2 | 11.3 | 0.00 | 0.00 | 0.03 | 67 | 1019.0 |
| 20260508140747 | 12 | 197 | 0.0 | 6.4 | 0.00 | 0.00 | 0.03 | 70 | 1019.0 |
| 20260508140246 | 12 | 158 | 1.6 | 8.0 | 0.00 | 0.00 | 0.03 | 79 | 1018.9 |
| 20260508135745 | 12 | 163 | 0.0 | 3.2 | 0.00 | 0.00 | 0.03 | 81 | 1018.9 |
| 20260508135246 | 11 | 98 | 0.0 | 3.2 | 0.00 | 0.00 | 0.03 | 77 | 1018.9 |
| 20260508134745 | 11 | 174 | 1.6 | 4.8 | 0.00 | 0.00 | 0.03 | 83 | 1018.9 |
| 20260508133744 | 10 | 198 | 1.6 | 6.4 | 0.00 | 0.00 | 0.03 | 88 | 1018.8 |
| 20260508133245 | 10 | 249 | 0.0 | 4.8 | 0.00 | 0.00 | 0.03 | 92 | 1018.7 |
| 20260508132744 | 9 | 207 | 0.0 | 3.2 | 0.00 | 0.00 | 0.03 | 97 | 1018.7 |
| 20260508131743 | 8 | 0 | 0.0 | 0.0 | 0.00 | 0.00 | 0.03 | 100 | 1018.7 |
| 20260508131243 | 8 | 174 | 0.0 | 3.2 | 0.00 | 0.00 | 0.03 | 100 | 1018.7 |
| 20260508125745 | 8 | 284 | 0.0 | 6.4 | 0.00 | 0.00 | 0.03 | 100 | 1018.7 |
| 20260508125242 | 7 | 0 | 0.0 | 0.0 | 0.00 | 0.00 | 0.03 | 100 | 1018.6 |
| 20260508124742 | 7 | 0 | 0.0 | 0.0 | 0.00 | 0.00 | 0.03 | 100 | 1018.7 |
| 20260508124241 | 6 | 0 | 0.0 | 0.0 | 0.00 | 0.00 | 0.03 | 100 | 1018.6 |
| 20260508123741 | 5 | 0 | 0.0 | 0.0 | 0.00 | 0.00 | 0.03 | 100 | 1018.6 |
| 20260508123241 | 5 | 0 | 0.0 | 0.0 | 0.00 | 0.00 | 0.03 | 100 | 1018.5 |
| 20260508122740 | 5 | 0 | 0.0 | 0.0 | 0.00 | 0.00 | 0.03 | 100 | 1018.5 |
| 20260508122239 | 5 | 0 | 0.0 | 0.0 | 0.00 | 0.00 | 0.03 | 100 | 1018.5 |
| 20260508121239 | 3 | 0 | 0.0 | 0.0 | 0.00 | 0.00 | 0.03 | 100 | 1018.6 |
| 20260508120238 | 3 | 0 | 0.0 | 0.0 | 0.00 | 0.00 | 0.03 | 100 | 1018.6 |
| 20260508115237 | 2 | 0 | 0.0 | 0.0 | 0.00 | 0.00 | 0.03 | 100 | 1018.6 |
| 20260508114237 | 2 | 0 | 0.0 | 0.0 | 0.00 | 0.00 | 0.03 | 100 | 1018.4 |
| 20260508113737 | 2 | 0 | 0.0 | 0.0 | 0.00 | 0.00 | 0.03 | 100 | 1018.3 |
| 20260508113236 | 2 | 0 | 0.0 | 0.0 | 0.00 | 0.00 | 0.03 | 100 | 1018.3 |
| 20260508112736 | 1 | 0 | 0.0 | 0.0 | 0.00 | 0.00 | 0.03 | 100 | 1018.2 |
| 20260508111735 | 1 | 0 | 0.0 | 0.0 | 0.00 | 0.00 | 0.03 | 100 | 1018.1 |
| 20260508110735 | 1 | 0 | 0.0 | 0.0 | 0.00 | 0.00 | 0.03 | 100 | 1018.0 |
| 20260508110235 | 1 | 0 | 0.0 | 0.0 | 0.00 | 0.00 | 0.03 | 100 | 1017.8 |
| 20260508105734 | 1 | 0 | 0.0 | 0.0 | 0.00 | 0.00 | 0.03 | 100 | 1017.8 |
| 20260508105234 | 1 | 0 | 0.0 | 0.0 | 0.00 | 0.00 | 0.03 | 100 | 1017.8 |
| 20260508104734 | 1 | 0 | 0.0 | 0.0 | 0.00 | 0.00 | 0.03 | 100 | 1017.6 |
| 20260508104233 | 0 | 0 | 0.0 | 0.0 | 0.00 | 0.00 | 0.03 | 100 | 1017.6 |
| 20260508103733 | 0 | 0 | 0.0 | 0.0 | 0.00 | 0.00 | 0.03 | 100 | 1017.5 |
| 20260508103233 | 1 | 0 | 0.0 | 0.0 | 0.00 | 0.00 | 0.03 | 100 | 1017.5 |
| 20260508102733 | 1 | 0 | 0.0 | 0.0 | 0.00 | 0.00 | 0.03 | 100 | 1017.5 |
| 20260508102232 | 0 | 0 | 0.0 | 0.0 | 0.00 | 0.00 | 0.03 | 100 | 1017.4 |
| 20260508101732 | 1 | 0 | 0.0 | 0.0 | 0.00 | 0.00 | 0.03 | 100 | 1017.4 |
| 20260508101232 | 1 | 0 | 0.0 | 0.0 | 0.00 | 0.00 | 0.03 | 100 | 1017.3 |
| 20260508100731 | 0 | 0 | 0.0 | 0.0 | 0.00 | 0.00 | 0.03 | 100 | 1017.3 |
| 20260508100231 | 1 | 0 | 0.0 | 0.0 | 0.00 | 0.00 | 0.03 | 100 | 1017.4 |
| 20260508095231 | 0 | 0 | 0.0 | 0.0 | 0.00 | 0.00 | 0.00 | 100 | 1017.3 |
| 20260508094730 | 1 | 0 | 0.0 | 0.0 | 0.00 | 0.00 | 0.00 | 100 | 1017.3 |
| 20260508094230 | 1 | 0 | 0.0 | 0.0 | 0.00 | 0.00 | 0.00 | 100 | 1017.4 |
| 20260508093730 | 1 | 0 | 0.0 | 0.0 | 0.00 | 0.00 | 0.00 | 100 | 1017.4 |
| 20260508093229 | 1 | 0 | 0.0 | 0.0 | 0.00 | 0.00 | 0.00 | 100 | 1017.4 |
| 20260508092729 | 1 | 0 | 0.0 | 0.0 | 0.00 | 0.00 | 0.00 | 100 | 1017.3 |
| 20260508092229 | 1 | 0 | 0.0 | 0.0 | 0.00 | 0.00 | 0.00 | 100 | 1017.3 |
| 20260508091228 | 1 | 0 | 0.0 | 0.0 | 0.00 | 0.00 | 0.00 | 100 | 1017.4 |
| 20260508090728 | 1 | 0 | 0.0 | 0.0 | 0.00 | 0.00 | 0.00 | 100 | 1017.4 |
| 20260508085727 | 1 | 0 | 0.0 | 0.0 | 0.00 | 0.00 | 0.00 | 100 | 1017.4 |
| 20260508085227 | 1 | 0 | 0.0 | 0.0 | 0.00 | 0.00 | 0.00 | 100 | 1017.4 |
| 20260508084728 | 1 | 0 | 0.0 | 0.0 | 0.00 | 0.00 | 0.00 | 100 | 1017.3 |
| 20260508083726 | 1 | 0 | 0.0 | 0.0 | 0.00 | 0.00 | 0.00 | 100 | 1017.3 |
| 20260508083227 | 2 | 0 | 0.0 | 0.0 | 0.00 | 0.00 | 0.00 | 100 | 1017.2 |
| 20260508082726 | 2 | 0 | 0.0 | 0.0 | 0.00 | 0.00 | 0.00 | 100 | 1017.3 |
| 20260508081725 | 1 | 0 | 0.0 | 0.0 | 0.00 | 0.00 | 0.00 | 100 | 1017.2 |
| 20260508081225 | 1 | 0 | 0.0 | 0.0 | 0.00 | 0.00 | 0.00 | 100 | 1017.2 |
| 20260508080725 | 1 | 0 | 0.0 | 0.0 | 0.00 | 0.00 | 0.00 | 100 | 1017.2 |
| 20260508080224 | 2 | 0 | 0.0 | 0.0 | 0.00 | 0.00 | 0.00 | 100 | 1017.1 |
| 20260508075724 | 2 | 0 | 0.0 | 0.0 | 0.00 | 0.00 | 0.00 | 100 | 1017.1 |
| 20260508075224 | 2 | 0 | 0.0 | 0.0 | 0.00 | 0.00 | 0.00 | 100 | 1017.1 |
| 20260508074724 | 2 | 0 | 0.0 | 0.0 | 0.00 | 0.00 | 0.00 | 100 | 1017.2 |
| 20260508074223 | 2 | 0 | 0.0 | 0.0 | 0.00 | 0.00 | 0.00 | 100 | 1017.2 |
| 20260508073723 | 2 | 0 | 0.0 | 0.0 | 0.00 | 0.00 | 0.00 | 100 | 1017.2 |
| 20260508073223 | 2 | 0 | 0.0 | 0.0 | 0.00 | 0.00 | 0.00 | 100 | 1017.2 |
| 20260508072722 | 2 | 0 | 0.0 | 0.0 | 0.00 | 0.00 | 0.00 | 100 | 1017.2 |
| 20260508072222 | 2 | 0 | 0.0 | 0.0 | 0.00 | 0.00 | 0.00 | 100 | 1017.1 |
| 20260508071722 | 2 | 0 | 0.0 | 0.0 | 0.00 | 0.00 | 0.00 | 100 | 1017.0 |
| 20260508071222 | 2 | 0 | 0.0 | 0.0 | 0.00 | 0.00 | 0.00 | 100 | 1017.1 |
| 20260508070721 | 2 | 0 | 0.0 | 0.0 | 0.00 | 0.00 | 0.00 | 100 | 1017.1 |
| 20260508070221 | 2 | 0 | 0.0 | 0.0 | 0.00 | 0.00 | 0.00 | 100 | 1017.1 |
| 20260508065721 | 2 | 0 | 0.0 | 0.0 | 0.00 | 0.00 | 0.00 | 100 | 1017.2 |
| 20260508065220 | 2 | 0 | 0.0 | 0.0 | 0.00 | 0.00 | 0.00 | 100 | 1017.3 |
| 20260508064720 | 2 | 0 | 0.0 | 0.0 | 0.00 | 0.00 | 0.00 | 100 | 1017.3 |
| 20260508064220 | 2 | 0 | 0.0 | 0.0 | 0.00 | 0.00 | 0.00 | 100 | 1017.3 |
| 20260508063720 | 2 | 0 | 0.0 | 0.0 | 0.00 | 0.00 | 0.00 | 100 | 1017.2 |
| 20260508063219 | 2 | 0 | 0.0 | 0.0 | 0.00 | 0.00 | 0.00 | 100 | 1017.2 |
| 20260508062719 | 2 | 0 | 0.0 | 0.0 | 0.00 | 0.00 | 0.00 | 100 | 1017.1 |
| 20260508062219 | 3 | 0 | 0.0 | 0.0 | 0.00 | 0.00 | 0.00 | 100 | 1017.1 |
| 20260508061718 | 3 | 0 | 0.0 | 0.0 | 0.00 | 0.00 | 0.00 | 100 | 1017.2 |
| 20260508061218 | 2 | 0 | 0.0 | 0.0 | 0.00 | 0.00 | 0.00 | 100 | 1017.2 |
| 20260508060718 | 3 | 0 | 0.0 | 0.0 | 0.00 | 0.00 | 0.00 | 100 | 1017.3 |
| 20260508060218 | 3 | 0 | 0.0 | 0.0 | 0.00 | 0.00 | 0.00 | 100 | 1017.3 |
| 20260508055717 | 3 | 0 | 0.0 | 0.0 | 0.00 | 0.00 | 0.00 | 100 | 1017.4 |
| 20260508055217 | 3 | 0 | 0.0 | 0.0 | 0.00 | 0.00 | 0.00 | 100 | 1017.4 |
| 20260508054717 | 2 | 0 | 0.0 | 0.0 | 0.00 | 0.00 | 0.00 | 100 | 1017.4 |
| 20260508054216 | 3 | 0 | 0.0 | 0.0 | 0.00 | 0.00 | 0.00 | 100 | 1017.4 |
| 20260508053716 | 3 | 0 | 0.0 | 0.0 | 0.00 | 0.00 | 0.00 | 100 | 1017.5 |
| 20260508053216 | 3 | 0 | 0.0 | 0.0 | 0.00 | 0.00 | 0.00 | 100 | 1017.6 |
| 20260508052716 | 3 | 0 | 0.0 | 0.0 | 0.00 | 0.00 | 0.00 | 100 | 1017.6 |
| 20260508052215 | 3 | 0 | 0.0 | 0.0 | 0.00 | 0.00 | 0.00 | 100 | 1017.6 |
| 20260508051715 | 3 | 0 | 0.0 | 0.0 | 0.00 | 0.00 | 0.00 | 100 | 1017.7 |
| 20260508051215 | 3 | 0 | 0.0 | 0.0 | 0.00 | 0.00 | 0.00 | 100 | 1017.6 |
| 20260508050715 | 3 | 0 | 0.0 | 0.0 | 0.00 | 0.00 | 0.00 | 100 | 1017.6 |
| 20260508050214 | 4 | 0 | 0.0 | 0.0 | 0.00 | 0.00 | 0.00 | 100 | 1017.5 |
| 20260508045714 | 3 | 0 | 0.0 | 0.0 | 0.00 | 0.00 | 0.00 | 100 | 1017.5 |
| 20260508045214 | 3 | 0 | 0.0 | 0.0 | 0.00 | 0.00 | 0.00 | 100 | 1017.5 |
| 20260508044713 | 4 | 0 | 0.0 | 0.0 | 0.00 | 0.00 | 0.00 | 100 | 1017.3 |
| 20260508044213 | 3 | 0 | 0.0 | 0.0 | 0.00 | 0.00 | 0.00 | 100 | 1017.3 |
| 20260508043713 | 4 | 0 | 0.0 | 0.0 | 0.00 | 0.00 | 0.00 | 100 | 1017.2 |
| 20260508042712 | 4 | 0 | 0.0 | 0.0 | 0.00 | 0.00 | 0.00 | 100 | 1017.0 |
| 20260508042212 | 4 | 0 | 0.0 | 0.0 | 0.00 | 0.00 | 0.00 | 100 | 1017.0 |
| 20260508041712 | 5 | 0 | 0.0 | 0.0 | 0.00 | 0.00 | 0.00 | 100 | 1016.9 |
| 20260508041211 | 5 | 0 | 0.0 | 0.0 | 0.00 | 0.00 | 0.00 | 100 | 1016.9 |
| 20260508040711 | 4 | 0 | 0.0 | 0.0 | 0.00 | 0.00 | 0.00 | 100 | 1016.9 |
| 20260508040211 | 4 | 0 | 0.0 | 0.0 | 0.00 | 0.00 | 0.00 | 100 | 1016.9 |
| 20260508035710 | 5 | 0 | 0.0 | 0.0 | 0.00 | 0.00 | 0.00 | 100 | 1016.8 |
| 20260508034710 | 5 | 0 | 0.0 | 0.0 | 0.00 | 0.00 | 0.00 | 100 | 1016.7 |
| 20260508034210 | 5 | 0 | 0.0 | 0.0 | 0.00 | 0.00 | 0.00 | 100 | 1016.7 |
| 20260508033709 | 5 | 0 | 0.0 | 0.0 | 0.00 | 0.00 | 0.00 | 100 | 1016.8 |
| 20260508033209 | 5 | 0 | 0.0 | 0.0 | 0.00 | 0.00 | 0.00 | 100 | 1016.7 |
| 20260508032709 | 5 | 0 | 0.0 | 0.0 | 0.00 | 0.00 | 0.00 | 100 | 1016.7 |
| 20260508032209 | 6 | 0 | 0.0 | 0.0 | 0.00 | 0.00 | 0.00 | 100 | 1016.8 |
| 20260508031708 | 6 | 0 | 0.0 | 0.0 | 0.00 | 0.00 | 0.00 | 100 | 1016.9 |
| 20260508031208 | 6 | 0 | 0.0 | 0.0 | 0.00 | 0.00 | 0.00 | 100 | 1016.9 |
| 20260508030708 | 6 | 0 | 0.0 | 0.0 | 0.00 | 0.00 | 0.00 | 100 | 1016.8 |
| 20260508030207 | 6 | 0 | 0.0 | 0.0 | 0.00 | 0.00 | 0.00 | 100 | 1016.7 |
| 20260508025707 | 5 | 0 | 0.0 | 0.0 | 0.00 | 0.00 | 0.00 | 100 | 1016.7 |
| 20260508025208 | 6 | 0 | 0.0 | 0.0 | 0.00 | 0.00 | 0.00 | 100 | 1016.6 |
| 20260508024706 | 6 | 0 | 0.0 | 0.0 | 0.00 | 0.00 | 0.00 | 100 | 1016.6 |
| 20260508024206 | 6 | 0 | 0.0 | 0.0 | 0.00 | 0.00 | 0.00 | 100 | 1016.5 |
| 20260508023706 | 6 | 0 | 0.0 | 0.0 | 0.00 | 0.00 | 0.00 | 100 | 1016.4 |
| 20260508022705 | 6 | 0 | 0.0 | 0.0 | 0.00 | 0.00 | 0.00 | 100 | 1016.3 |
| 20260508022205 | 6 | 0 | 0.0 | 0.0 | 0.00 | 0.00 | 0.00 | 100 | 1016.3 |
| 20260508021705 | 7 | 0 | 0.0 | 0.0 | 0.00 | 0.00 | 0.00 | 100 | 1016.3 |
| 20260508021204 | 7 | 0 | 0.0 | 0.0 | 0.00 | 0.00 | 0.00 | 100 | 1016.2 |
| 20260508020704 | 7 | 0 | 0.0 | 0.0 | 0.00 | 0.00 | 0.00 | 100 | 1016.1 |
| 20260508020204 | 7 | 0 | 0.0 | 0.0 | 0.00 | 0.00 | 0.00 | 100 | 1016.0 |
| 20260508015704 | 7 | 0 | 0.0 | 0.0 | 0.00 | 0.00 | 0.00 | 100 | 1015.9 |
| 20260508014203 | 8 | 0 | 0.0 | 0.0 | 0.00 | 0.00 | 0.00 | 99 | 1015.6 |
| 20260508013703 | 8 | 0 | 0.0 | 0.0 | 0.00 | 0.00 | 0.00 | 96 | 1015.6 |
| 20260508013203 | 8 | 0 | 0.0 | 0.0 | 0.00 | 0.00 | 0.00 | 91 | 1015.4 |
| 20260508011701 | 9 | 0 | 0.0 | 0.0 | 0.00 | 0.00 | 0.00 | 82 | 1015.1 |
| 20260508011201 | 10 | 0 | 0.0 | 0.0 | 0.00 | 0.00 | 0.00 | 77 | 1015.1 |
| 20260508010701 | 10 | 0 | 0.0 | 0.0 | 0.00 | 0.00 | 0.00 | 70 | 1015.0 |
| 20260508005700 | 11 | 0 | 0.0 | 0.0 | 0.00 | 0.00 | 0.00 | 63 | 1015.0 |
| 20260508005201 | 11 | 0 | 0.0 | 0.0 | 0.00 | 0.00 | 0.00 | 63 | 1014.8 |
| 20260508004700 | 11 | 0 | 0.0 | 0.0 | 0.00 | 0.00 | 0.00 | 63 | 1014.8 |
| 20260508004159 | 11 | 0 | 0.0 | 0.0 | 0.00 | 0.00 | 0.00 | 61 | 1014.8 |
| 20260508003159 | 12 | 0 | 0.0 | 0.0 | 0.00 | 0.00 | 0.00 | 57 | 1014.7 |
| 20260508002658 | 12 | 0 | 0.0 | 0.0 | 0.00 | 0.00 | 0.00 | 56 | 1014.6 |
| 20260508001658 | 13 | 0 | 0.0 | 0.0 | 0.00 | 0.00 | 0.00 | 51 | 1014.5 |
| 20260508001158 | 13 | 0 | 0.0 | 0.0 | 0.00 | 0.00 | 0.00 | 55 | 1014.4 |
| 20260507235657 | 13 | 0 | 0.0 | 0.0 | 0.00 | 0.00 | 0.00 | 50 | 1014.5 |
| 20260507234156 | 15 | 329 | 1.6 | 8.0 | 0.00 | 0.00 | 0.00 | 37 | 1014.4 |
| 20260507233155 | 15 | 335 | 4.8 | 9.7 | 0.00 | 0.00 | 0.00 | 33 | 1014.3 |
| 20260507232655 | 16 | 356 | 8.0 | 12.9 | 0.00 | 0.00 | 0.00 | 30 | 1014.3 |
| 20260507232155 | 16 | 339 | 6.4 | 11.3 | 0.00 | 0.00 | 0.00 | 33 | 1014.2 |
| 20260507231655 | 16 | 338 | 6.4 | 11.3 | 0.00 | 0.00 | 0.00 | 33 | 1014.3 |
| 20260507231154 | 16 | 7 | 9.7 | 14.5 | 0.00 | 0.00 | 0.00 | 36 | 1014.3 |
| 20260507230654 | 17 | 325 | 8.0 | 17.7 | 0.00 | 0.00 | 0.00 | 33 | 1014.3 |
| 20260507230154 | 17 | 1 | 4.8 | 14.5 | 0.00 | 0.00 | 0.00 | 38 | 1014.4 |
| 20260507225653 | 16 | 329 | 8.0 | 14.5 | 0.00 | 0.00 | 0.00 | 30 | 1014.4 |
| 20260507225153 | 16 | 349 | 1.6 | 8.0 | 0.00 | 0.00 | 0.00 | 33 | 1014.4 |
| 20260507223652 | 17 | 336 | 8.0 | 20.9 | 0.00 | 0.00 | 0.00 | 36 | 1014.4 |